Grantsburg, WI (54840)

6:40 AM CDT on September 05, 2015 (GMT -0500)
Neighbors of Faith | | Change Station
CLOSE
Current Station
Personal Weather Station
Location: Grantsburg, WI
Elevation: 922 ft
Nearby Weather Stations

Elev 922 ft 45.78 °N, 92.69 °W | Updated 3 seconds ago

Clear
Clear
72.0 °F
Feels Like 71 °F
N
3.0
Wind Variable Wind from SSE
Gusts 7.0 mph

Today
High -- | Low -- °F
--% Chance of Precip.
Yesterday
High -- | Low -- °F
Precip. -- in
6:36 AM 7:41 PM
Waning Gibbous, 49% visible
Pressure 29.98 in
Visibility 7.0 miles
Clouds Clear
Heat Index 71 °F
Dew Point 66 °F
Humidity 83%
Rainfall Not available.
Snow Depth Not available.
UV 0 out of 12
Pollen 7.60 out of 12
Air Quality Not available.
Flu Activity Not available.
METAR KRZN 051115Z AUTO 16005KT 7SM CLR 21/20 A2998 RMK AO2 T02080200
Pressure 29.98 in
Visibility 7.0 miles
Clouds Clear
Heat Index 71 °F
Dew Point 66 °F
Humidity 83%
Rainfall Not available.
Snow Depth Not available.
UV 0 out of 12
Pollen 7.60 out of 12
Air Quality Not available.
Flu Activity Not available.
METAR KRZN 051115Z AUTO 16005KT 7SM CLR 21/20 A2998 RMK AO2 T02080200

10-Day Weather Forecast

×

Almanac

Astronomy

Sep. 05, 2015 Rise Set
Actual Time
Civil Twilight
Nautical Twilight
Astronomical Twilight
Moon
Length of Visible Light
Length of Day
Tomorrow will be .
, % of the Moon is Illuminated

Today's Extremes

State Highs State Lows

Community

WunderPhotos

Upload Photos

1,852,449 photos uploaded!

WunderBlogs® & News

Nearby

Air Quality

  Air Quality AQ Index Pollutant
Not available.

Snow Depth

Station Depth Elevation

Earthquake Activity

City Distance Mag. Time & Date
Minimum magnitude displayed is 2.5.

Coastal Water Temperatures

Place Temperature

Stations

Nearby Weather Stations

Station Location Temp. Windchill Dew Point Humidity Wind Precip. Elev Updated Type